createdAt,value
2022-09-17T00:02:33.563Z,20.92
2022-09-17T00:05:37.319Z,9.70
2022-09-17T00:08:40.821Z,12.07
2022-09-17T00:11:43.813Z,23.83
2022-09-17T00:14:46.531Z,20.10
2022-09-17T00:17:54.459Z,10.43
2022-09-17T00:20:56.847Z,19.77
2022-09-17T00:24:00.129Z,15.65
2022-09-17T00:27:02.656Z,20.65
2022-09-17T00:30:05.697Z,16.67
2022-09-17T00:33:10.065Z,23.85
2022-09-17T00:36:12.553Z,14.90
2022-09-17T00:39:17.489Z,20.13
2022-09-17T00:42:20.597Z,26.00
2022-09-17T00:45:24.033Z,13.23
2022-09-17T00:48:28.984Z,20.35
2022-09-17T00:51:35.349Z,16.48
2022-09-17T00:54:39.651Z,13.60
2022-09-17T00:57:42.428Z,23.17
2022-09-17T01:00:47.097Z,21.35
2022-09-17T01:03:51.229Z,17.60
2022-09-17T01:06:58.600Z,14.77
2022-09-17T01:10:08.749Z,16.17
2022-09-17T01:13:17.786Z,9.52
2022-09-17T01:16:21.412Z,16.73
2022-09-17T01:19:39.059Z,14.75
2022-09-17T01:22:52.017Z,22.45
2022-09-17T01:26:01.517Z,11.95
2022-09-17T01:29:08.915Z,17.90
2022-09-17T01:32:14.162Z,17.08
2022-09-17T01:35:19.822Z,17.20
2022-09-17T01:38:26.621Z,16.42
2022-09-17T01:41:33.579Z,22.80
2022-09-17T01:44:38.519Z,18.88
2022-09-17T01:47:45.629Z,12.60
2022-09-17T01:50:51.803Z,11.18
2022-09-17T01:53:57.866Z,15.93
2022-09-17T01:57:02.981Z,19.48
2022-09-17T02:00:07.135Z,17.15
2022-09-17T02:03:18.623Z,11.60
2022-09-17T02:06:23.606Z,14.75
2022-09-17T02:09:29.006Z,17.60
2022-09-17T02:12:34.627Z,23.65
2022-09-17T02:15:38.903Z,9.18
2022-09-17T02:18:45.280Z,14.45
2022-09-17T02:21:49.410Z,13.85
2022-09-17T02:24:56.770Z,11.93
2022-09-17T02:28:03.416Z,17.13
2022-09-17T02:31:06.119Z,13.95
2022-09-17T02:34:10.804Z,16.35
2022-09-17T02:37:13.352Z,13.80
2022-09-17T02:40:17.469Z,22.30
2022-09-17T02:43:23.368Z,15.00
2022-09-17T02:46:35.229Z,8.63
2022-09-17T02:49:50.394Z,8.55
2022-09-17T02:52:58.128Z,13.00
2022-09-17T02:56:03.534Z,10.98
2022-09-17T02:59:11.107Z,12.43
2022-09-17T03:02:17.412Z,9.48
2022-09-17T03:05:22.255Z,11.98
2022-09-17T03:08:29.679Z,13.50
2022-09-17T03:11:32.279Z,15.00
2022-09-17T03:14:34.749Z,11.68
2022-09-17T03:17:37.199Z,19.63
2022-09-17T03:20:41.028Z,11.82
2022-09-17T03:23:43.494Z,12.38
2022-09-17T03:26:49.159Z,6.60
2022-09-17T03:29:51.621Z,8.50
2022-09-17T03:32:57.078Z,14.23
2022-09-17T03:36:01.435Z,15.07
2022-09-17T03:39:04.063Z,19.00
2022-09-17T03:42:07.068Z,10.68
2022-09-17T03:45:10.540Z,9.30
2022-09-17T03:48:13.168Z,14.90
2022-09-17T03:51:16.941Z,16.50
2022-09-17T03:54:19.527Z,10.20
2022-09-17T03:57:22.662Z,12.40
2022-09-17T04:00:25.271Z,10.10
2022-09-17T04:03:29.044Z,13.77
2022-09-17T04:06:32.887Z,13.95
2022-09-17T04:09:35.568Z,7.97
2022-09-17T04:12:38.174Z,9.70
2022-09-17T04:15:40.827Z,15.23
2022-09-17T04:18:43.383Z,10.93
2022-09-17T04:21:47.195Z,11.40
2022-09-17T04:24:49.767Z,7.97
2022-09-17T04:27:52.250Z,8.45
2022-09-17T04:30:54.764Z,7.18
2022-09-17T04:33:57.305Z,8.93
2022-09-17T04:37:01.372Z,10.52
2022-09-17T04:40:08.138Z,7.25
2022-09-17T04:43:12.805Z,11.70
2022-09-17T04:46:18.029Z,19.60
2022-09-17T04:49:20.847Z,10.98
2022-09-17T04:52:30.255Z,13.98
2022-09-17T04:55:33.530Z,11.05
2022-09-17T04:58:36.530Z,5.30
2022-09-17T05:01:39.094Z,13.55
2022-09-17T05:04:43.544Z,8.75
2022-09-17T05:07:48.626Z,4.20
2022-09-17T05:10:51.274Z,7.68
2022-09-17T05:13:53.867Z,5.13
2022-09-17T05:16:57.247Z,6.65
2022-09-17T05:20:03.425Z,9.45
2022-09-17T05:23:16.813Z,7.55
2022-09-17T05:26:19.362Z,9.38
2022-09-17T05:29:23.538Z,7.10
2022-09-17T05:32:26.078Z,13.00
2022-09-17T05:35:32.564Z,6.53
2022-09-17T05:38:41.104Z,9.75
2022-09-17T05:41:44.666Z,10.77
2022-09-17T05:44:47.803Z,7.75
2022-09-17T05:47:56.203Z,12.57
2022-09-17T05:50:58.682Z,11.93
2022-09-17T05:54:07.700Z,6.35
2022-09-17T05:57:10.272Z,6.00
2022-09-17T06:00:14.229Z,5.97
2022-09-17T06:03:19.198Z,9.00
2022-09-17T06:06:21.782Z,9.82
2022-09-17T06:09:25.677Z,10.35
2022-09-17T06:12:29.163Z,5.65
2022-09-17T06:15:31.765Z,7.18
2022-09-17T06:18:38.703Z,10.18
2022-09-17T06:21:41.161Z,8.88
2022-09-17T06:24:45.061Z,13.23
2022-09-17T06:27:47.615Z,8.35
2022-09-17T06:30:52.578Z,12.75
2022-09-17T06:33:58.416Z,9.20
2022-09-17T06:37:01.421Z,6.47
2022-09-17T06:40:07.018Z,7.68
2022-09-17T06:43:09.726Z,8.60
2022-09-17T06:46:12.478Z,9.68
2022-09-17T06:49:17.762Z,11.85
2022-09-17T06:52:20.361Z,9.60
2022-09-17T06:55:28.171Z,5.90
2022-09-17T06:58:31.157Z,9.52
2022-09-17T07:01:34.748Z,9.77
2022-09-17T07:04:37.777Z,14.90
2022-09-17T07:07:41.146Z,12.68
2022-09-17T07:10:49.287Z,8.23
2022-09-17T07:13:52.810Z,7.25
2022-09-17T07:16:55.924Z,7.53
2022-09-17T07:19:59.528Z,12.43
2022-09-17T07:23:02.592Z,5.85
2022-09-17T07:26:07.517Z,13.57
2022-09-17T07:29:12.245Z,12.00
2022-09-17T07:32:19.777Z,4.47
2022-09-17T07:35:23.099Z,5.25
2022-09-17T07:38:26.271Z,8.25
2022-09-17T07:41:34.327Z,7.55
2022-09-17T07:44:37.683Z,7.35
2022-09-17T07:47:41.258Z,9.63
2022-09-17T07:50:43.874Z,5.88
2022-09-17T07:53:50.349Z,5.07
2022-09-17T07:56:54.670Z,8.65
2022-09-17T08:00:01.988Z,4.32
2022-09-17T08:03:17.774Z,8.73
2022-09-17T08:06:21.232Z,6.18
2022-09-17T08:09:24.266Z,2.72
2022-09-17T08:12:29.866Z,4.70
2022-09-17T08:15:32.423Z,6.47
2022-09-17T08:18:35.813Z,5.53
2022-09-17T08:21:39.321Z,6.68
2022-09-17T08:24:44.960Z,0.98
2022-09-17T08:27:49.080Z,5.38
2022-09-17T08:30:52.106Z,6.72
2022-09-17T08:33:54.801Z,4.47
2022-09-17T08:36:57.716Z,3.92
2022-09-17T08:40:02.182Z,8.30
2022-09-17T08:43:07.091Z,6.20
2022-09-17T08:46:10.812Z,7.63
2022-09-17T08:49:17.371Z,8.45
2022-09-17T08:52:34.807Z,6.45
2022-09-17T08:55:38.716Z,10.10
2022-09-17T08:58:59.655Z,10.45
2022-09-17T09:02:14.102Z,8.07
2022-09-17T09:05:17.875Z,14.32
2022-09-17T09:08:23.530Z,4.93
2022-09-17T09:11:27.372Z,1.45
2022-09-17T09:14:32.942Z,4.60
2022-09-17T09:17:39.092Z,4.20
2022-09-17T09:20:47.031Z,8.30
2022-09-17T09:23:53.218Z,4.32
2022-09-17T09:26:59.513Z,2.03
2022-09-17T09:30:04.088Z,2.97
2022-09-17T09:33:13.436Z,2.90
2022-09-17T09:36:21.383Z,8.18
2022-09-17T09:39:25.890Z,9.98
2022-09-17T09:42:30.035Z,5.85
2022-09-17T09:45:38.969Z,7.78
2022-09-17T09:48:47.795Z,6.78
2022-09-17T09:51:53.692Z,6.63
2022-09-17T09:55:03.659Z,3.78
2022-09-17T09:58:09.861Z,4.38
2022-09-17T10:01:13.897Z,2.25
2022-09-17T10:04:20.123Z,2.88
2022-09-17T10:07:22.675Z,3.78
2022-09-17T10:10:25.197Z,5.60
2022-09-17T10:13:28.411Z,5.68
2022-09-17T10:16:39.770Z,1.77
2022-09-17T10:19:44.166Z,1.08
2022-09-17T10:22:47.208Z,2.85
2022-09-17T10:25:50.097Z,4.50
2022-09-17T10:28:54.334Z,11.48
2022-09-17T10:31:57.693Z,1.75
2022-09-17T10:35:04.980Z,3.05
2022-09-17T10:38:27.304Z,6.47
2022-09-17T10:41:29.852Z,0.90
2022-09-17T10:44:34.322Z,4.20
2022-09-17T10:47:37.994Z,3.13
2022-09-17T10:50:41.787Z,0.63
2022-09-17T10:53:58.106Z,3.45
2022-09-17T10:57:01.557Z,0.68
2022-09-17T11:00:09.366Z,1.17
2022-09-17T11:03:29.987Z,4.68
2022-09-17T11:06:46.550Z,1.00
2022-09-17T11:09:53.059Z,5.35
2022-09-17T11:13:09.251Z,1.73
2022-09-17T11:16:20.412Z,1.98
2022-09-17T11:19:28.017Z,2.67
2022-09-17T11:22:36.851Z,4.35
2022-09-17T11:25:46.269Z,2.78
2022-09-17T11:28:52.902Z,4.15
2022-09-17T11:32:00.810Z,2.72
2022-09-17T11:35:04.468Z,4.07
2022-09-17T11:38:11.667Z,4.38
2022-09-17T11:41:16.550Z,2.45
2022-09-17T11:44:25.552Z,1.73
2022-09-17T11:47:31.502Z,1.95
2022-09-17T11:50:37.582Z,2.85
2022-09-17T11:53:44.049Z,0.95
2022-09-17T11:56:48.747Z,1.35
2022-09-17T11:59:52.938Z,3.35
2022-09-17T12:02:58.590Z,3.58
2022-09-17T12:06:03.563Z,3.55
2022-09-17T12:09:11.524Z,4.70
2022-09-17T12:12:45.054Z,6.75
2022-09-17T12:15:44.594Z,1.52
2022-09-17T12:18:52.445Z,4.43
2022-09-17T12:21:57.549Z,3.30
2022-09-17T12:25:02.234Z,5.05
2022-09-17T12:28:09.096Z,2.67
2022-09-17T12:31:15.419Z,2.67
2022-09-17T12:34:23.726Z,3.78
2022-09-17T12:37:28.722Z,4.38
2022-09-17T12:40:35.149Z,5.75
2022-09-17T12:43:48.094Z,0.57
2022-09-17T12:46:56.226Z,3.05
2022-09-17T12:50:04.718Z,2.05
2022-09-17T12:53:14.006Z,2.85
2022-09-17T12:56:25.678Z,2.58
2022-09-17T12:59:30.943Z,8.98
2022-09-17T13:02:37.119Z,1.98
2022-09-17T13:05:57.547Z,5.63
2022-09-17T13:09:27.237Z,3.67
2022-09-17T13:12:33.352Z,3.20
2022-09-17T13:15:42.516Z,0.95
2022-09-17T13:19:05.531Z,3.53
2022-09-17T13:22:17.202Z,2.95
2022-09-17T13:25:20.704Z,2.65
2022-09-17T13:28:36.783Z,3.03
2022-09-17T13:31:50.779Z,5.30
2022-09-17T13:34:53.302Z,3.22
2022-09-17T13:37:57.258Z,3.22
2022-09-17T13:41:14.586Z,2.58
2022-09-17T13:44:23.595Z,5.18
2022-09-17T13:48:03.916Z,4.93
2022-09-17T13:51:21.411Z,6.05
2022-09-17T13:54:25.604Z,6.47
2022-09-17T13:57:28.388Z,5.93
2022-09-17T14:00:52.348Z,7.03
2022-09-17T14:03:57.019Z,5.68
2022-09-17T14:06:59.603Z,2.20
2022-09-17T14:10:02.312Z,2.53
2022-09-17T14:13:24.083Z,12.77
2022-09-17T14:16:37.095Z,4.05
2022-09-17T14:19:49.036Z,12.05
2022-09-17T14:22:57.564Z,5.03
2022-09-17T14:26:01.318Z,9.95
2022-09-17T14:29:10.084Z,5.03
2022-09-17T14:32:18.164Z,3.05
2022-09-17T14:35:24.592Z,9.40
2022-09-17T14:38:32.638Z,5.38
2022-09-17T14:41:45.767Z,3.97
2022-09-17T14:44:54.148Z,10.10
2022-09-17T14:48:15.363Z,0.73
2022-09-17T14:51:26.669Z,4.45
2022-09-17T14:54:35.146Z,5.80
2022-09-17T14:57:38.875Z,3.63
2022-09-17T15:00:51.729Z,6.25
2022-09-17T15:04:09.866Z,1.17
2022-09-17T15:07:14.736Z,2.30
2022-09-17T15:10:18.856Z,5.18
2022-09-17T15:13:23.559Z,4.15
2022-09-17T15:16:27.150Z,4.05
2022-09-17T15:19:33.388Z,1.40
2022-09-17T15:22:40.266Z,1.75
2022-09-17T15:25:43.819Z,6.15
2022-09-17T15:28:47.630Z,3.47
2022-09-17T15:31:50.958Z,4.10
2022-09-17T15:35:13.188Z,3.65
2022-09-17T15:38:30.754Z,2.03
2022-09-17T15:41:42.407Z,2.50
2022-09-17T15:44:45.729Z,2.05
2022-09-17T15:48:00.335Z,1.60
2022-09-17T15:51:04.989Z,4.68
2022-09-17T15:54:29.731Z,7.90
2022-09-17T15:57:36.624Z,1.95
2022-09-17T16:00:39.238Z,1.52
2022-09-17T16:03:56.683Z,2.25
2022-09-17T16:07:04.239Z,0.30
2022-09-17T16:10:08.751Z,0.70
2022-09-17T16:13:12.275Z,3.85
2022-09-17T16:16:16.237Z,1.23
2022-09-17T16:19:18.812Z,1.17
2022-09-17T16:22:21.419Z,2.05
2022-09-17T16:25:26.063Z,4.95
2022-09-17T16:28:32.320Z,4.13
2022-09-17T16:31:35.741Z,9.40
2022-09-17T16:34:38.745Z,3.65
2022-09-17T16:37:41.333Z,0.77
2022-09-17T16:40:47.060Z,0.85
2022-09-17T16:43:49.628Z,3.65
2022-09-17T16:46:52.406Z,0.30
2022-09-17T16:49:54.941Z,2.53
2022-09-17T16:53:01.513Z,4.30
2022-09-17T16:56:08.865Z,1.13
2022-09-17T16:59:12.322Z,5.10
2022-09-17T17:02:18.052Z,1.45
2022-09-17T17:05:20.808Z,2.30
2022-09-17T17:08:23.389Z,1.42
2022-09-17T17:11:27.880Z,2.67
2022-09-17T17:14:30.836Z,1.25
2022-09-17T17:17:35.699Z,3.10
2022-09-17T17:20:38.318Z,2.88
2022-09-17T17:23:43.386Z,1.85
2022-09-17T17:26:47.606Z,4.03
2022-09-17T17:29:50.800Z,2.83
2022-09-17T17:32:53.646Z,0.45
2022-09-17T17:36:03.976Z,0.88
2022-09-17T17:39:10.423Z,0.38
2022-09-17T17:42:15.225Z,0.20
2022-09-17T17:45:17.750Z,3.22
2022-09-17T17:48:20.262Z,0.98
2022-09-17T17:51:23.802Z,2.00
2022-09-17T17:54:28.948Z,4.70
2022-09-17T17:57:33.754Z,0.88
2022-09-17T18:00:36.336Z,0.20
2022-09-17T18:03:39.851Z,0.32
2022-09-17T18:06:47.959Z,0.25
2022-09-17T18:09:51.320Z,2.28
2022-09-17T18:12:55.864Z,0.30
2022-09-17T18:16:00.358Z,1.75
2022-09-17T18:19:03.051Z,2.58
2022-09-17T18:22:05.681Z,0.60
2022-09-17T18:25:16.399Z,1.58
2022-09-17T18:28:23.142Z,0.20
2022-09-17T18:31:26.450Z,0.20
2022-09-17T18:34:29.099Z,0.98
2022-09-17T18:37:31.588Z,0.35
2022-09-17T18:40:34.292Z,0.10
2022-09-17T18:43:38.208Z,0.20
2022-09-17T18:46:42.712Z,0.45
2022-09-17T18:49:45.410Z,2.78
2022-09-17T18:52:48.276Z,0.52
2022-09-17T18:55:54.559Z,0.20
2022-09-17T18:59:00.810Z,0.32
2022-09-17T19:02:07.804Z,0.85
2022-09-17T19:05:10.678Z,0.55
2022-09-17T19:08:14.485Z,6.13
2022-09-17T19:11:16.946Z,0.25
2022-09-17T19:14:20.825Z,1.75
2022-09-17T19:17:23.438Z,0.20
2022-09-17T19:20:26.343Z,0.77
2022-09-17T19:23:29.476Z,0.38
2022-09-17T19:26:31.991Z,0.90
2022-09-17T19:29:36.029Z,0.50
2022-09-17T19:32:41.283Z,1.38
2022-09-17T19:35:45.760Z,2.13
2022-09-17T19:38:48.698Z,0.30
2022-09-17T19:41:51.197Z,0.30
2022-09-17T19:44:55.133Z,0.88
2022-09-17T19:48:01.563Z,2.90
2022-09-17T19:51:04.582Z,4.75
2022-09-17T19:54:09.355Z,2.30
2022-09-17T19:57:11.867Z,1.35
2022-09-17T20:00:16.677Z,6.95
2022-09-17T20:03:19.093Z,4.68
2022-09-17T20:06:23.253Z,3.33
2022-09-17T20:09:25.806Z,1.67
2022-09-17T20:12:28.312Z,4.93
2022-09-17T20:15:34.302Z,4.40
2022-09-17T20:18:37.109Z,2.47
2022-09-17T20:21:39.833Z,6.35
2022-09-17T20:24:46.577Z,2.35
2022-09-17T20:27:52.107Z,6.25
2022-09-17T20:31:02.025Z,3.78
2022-09-17T22:55:25.792Z,5.07
2022-09-17T22:58:28.615Z,6.13
2022-09-17T23:01:33.015Z,2.88
2022-09-17T23:04:35.835Z,8.73
2022-09-17T23:07:38.853Z,8.15
2022-09-17T23:10:43.308Z,10.35
2022-09-17T23:13:46.601Z,6.13
2022-09-17T23:16:49.713Z,8.20
2022-09-17T23:19:52.279Z,8.68
2022-09-17T23:22:54.824Z,7.78
2022-09-17T23:26:02.941Z,9.85
2022-09-17T23:29:05.968Z,2.50
2022-09-17T23:32:08.706Z,6.22
2022-09-17T23:35:12.457Z,8.23
2022-09-17T23:38:15.258Z,12.15
2022-09-17T23:41:20.158Z,4.75
2022-09-17T23:44:22.770Z,7.75
2022-09-17T23:47:25.241Z,4.63
2022-09-17T23:50:27.802Z,4.43
2022-09-17T23:53:30.993Z,9.13
2022-09-17T23:56:35.346Z,6.00
2022-09-17T23:59:37.902Z,6.13
